sensor_id;sensor_type;location;lat;lon;timestamp;P1;durP1;ratioP1;P2;durP2;ratioP2
70303;SDS011;57712;48.752;11.348;2023-04-03T00:00:35;5.85;;;2.00;;
70303;SDS011;57712;48.752;11.348;2023-04-03T00:03:02;6.75;;;2.40;;
70303;SDS011;57712;48.752;11.348;2023-04-03T00:05:29;5.13;;;1.98;;
70303;SDS011;57712;48.752;11.348;2023-04-03T00:07:56;4.30;;;1.85;;
70303;SDS011;57712;48.752;11.348;2023-04-03T00:10:22;5.17;;;1.80;;
70303;SDS011;57712;48.752;11.348;2023-04-03T00:12:49;6.13;;;1.85;;
70303;SDS011;57712;48.752;11.348;2023-04-03T00:15:16;6.05;;;1.92;;
70303;SDS011;57712;48.752;11.348;2023-04-03T00:17:42;4.93;;;1.73;;
70303;SDS011;57712;48.752;11.348;2023-04-03T00:20:09;5.30;;;1.67;;
70303;SDS011;57712;48.752;11.348;2023-04-03T00:22:36;6.27;;;1.87;;
70303;SDS011;57712;48.752;11.348;2023-04-03T00:25:03;4.55;;;2.05;;
70303;SDS011;57712;48.752;11.348;2023-04-03T00:27:30;4.78;;;1.33;;
70303;SDS011;57712;48.752;11.348;2023-04-03T00:29:57;5.72;;;1.60;;
70303;SDS011;57712;48.752;11.348;2023-04-03T00:32:23;6.18;;;2.05;;
70303;SDS011;57712;48.752;11.348;2023-04-03T00:34:50;5.77;;;1.73;;
70303;SDS011;57712;48.752;11.348;2023-04-03T00:37:16;4.38;;;1.55;;
70303;SDS011;57712;48.752;11.348;2023-04-03T00:39:43;5.00;;;2.00;;
70303;SDS011;57712;48.752;11.348;2023-04-03T00:42:09;4.85;;;1.60;;
70303;SDS011;57712;48.752;11.348;2023-04-03T00:47:04;5.13;;;1.80;;
70303;SDS011;57712;48.752;11.348;2023-04-03T00:49:33;4.55;;;1.92;;
70303;SDS011;57712;48.752;11.348;2023-04-03T00:52:01;4.80;;;1.65;;
70303;SDS011;57712;48.752;11.348;2023-04-03T00:54:29;5.43;;;2.13;;
70303;SDS011;57712;48.752;11.348;2023-04-03T00:56:55;5.50;;;1.95;;
70303;SDS011;57712;48.752;11.348;2023-04-03T00:59:24;5.73;;;1.90;;
70303;SDS011;57712;48.752;11.348;2023-04-03T01:01:56;5.30;;;1.83;;
70303;SDS011;57712;48.752;11.348;2023-04-03T01:04:26;5.30;;;1.52;;
70303;SDS011;57712;48.752;11.348;2023-04-03T01:06:58;5.13;;;1.85;;
70303;SDS011;57712;48.752;11.348;2023-04-03T01:09:28;4.57;;;2.10;;
70303;SDS011;57712;48.752;11.348;2023-04-03T01:12:11;6.13;;;1.73;;
70303;SDS011;57712;48.752;11.348;2023-04-03T01:14:39;4.25;;;1.63;;
70303;SDS011;57712;48.752;11.348;2023-04-03T01:22:56;5.30;;;2.00;;
70303;SDS011;57712;48.752;11.348;2023-04-03T01:28:12;4.93;;;2.25;;
70303;SDS011;57712;48.752;11.348;2023-04-03T01:30:53;5.82;;;2.17;;
70303;SDS011;57712;48.752;11.348;2023-04-03T01:33:26;4.80;;;1.83;;
70303;SDS011;57712;48.752;11.348;2023-04-03T01:35:53;5.30;;;1.90;;
70303;SDS011;57712;48.752;11.348;2023-04-03T01:38:20;5.40;;;1.70;;
70303;SDS011;57712;48.752;11.348;2023-04-03T01:40:46;4.70;;;1.67;;
70303;SDS011;57712;48.752;11.348;2023-04-03T01:43:13;6.80;;;2.22;;
70303;SDS011;57712;48.752;11.348;2023-04-03T01:45:40;4.80;;;1.98;;
70303;SDS011;57712;48.752;11.348;2023-04-03T01:48:06;5.00;;;2.00;;
70303;SDS011;57712;48.752;11.348;2023-04-03T01:50:33;5.28;;;2.10;;
70303;SDS011;57712;48.752;11.348;2023-04-03T01:53:00;5.60;;;2.40;;
70303;SDS011;57712;48.752;11.348;2023-04-03T01:55:27;6.38;;;2.20;;
70303;SDS011;57712;48.752;11.348;2023-04-03T01:57:53;4.50;;;1.73;;
70303;SDS011;57712;48.752;11.348;2023-04-03T02:00:20;6.13;;;2.47;;
70303;SDS011;57712;48.752;11.348;2023-04-03T02:02:47;5.60;;;2.23;;
70303;SDS011;57712;48.752;11.348;2023-04-03T02:05:13;6.78;;;2.78;;
70303;SDS011;57712;48.752;11.348;2023-04-03T02:07:40;5.88;;;2.42;;
70303;SDS011;57712;48.752;11.348;2023-04-03T02:10:07;6.70;;;2.80;;
70303;SDS011;57712;48.752;11.348;2023-04-03T02:12:34;5.97;;;2.20;;
70303;SDS011;57712;48.752;11.348;2023-04-03T02:15:00;6.87;;;2.87;;
70303;SDS011;57712;48.752;11.348;2023-04-03T02:17:27;6.88;;;2.67;;
70303;SDS011;57712;48.752;11.348;2023-04-03T02:19:53;6.57;;;2.67;;
70303;SDS011;57712;48.752;11.348;2023-04-03T02:22:20;8.07;;;3.30;;
70303;SDS011;57712;48.752;11.348;2023-04-03T02:24:47;7.70;;;2.60;;
70303;SDS011;57712;48.752;11.348;2023-04-03T02:27:14;7.07;;;2.90;;
70303;SDS011;57712;48.752;11.348;2023-04-03T02:29:40;6.07;;;2.60;;
70303;SDS011;57712;48.752;11.348;2023-04-03T02:32:07;6.07;;;2.58;;
70303;SDS011;57712;48.752;11.348;2023-04-03T02:34:34;6.00;;;2.22;;
70303;SDS011;57712;48.752;11.348;2023-04-03T02:37:00;6.60;;;2.90;;
70303;SDS011;57712;48.752;11.348;2023-04-03T02:39:27;5.87;;;2.27;;
70303;SDS011;57712;48.752;11.348;2023-04-03T02:41:53;5.50;;;2.45;;
70303;SDS011;57712;48.752;11.348;2023-04-03T02:44:20;4.93;;;1.90;;
70303;SDS011;57712;48.752;11.348;2023-04-03T02:46:47;5.75;;;2.00;;
70303;SDS011;57712;48.752;11.348;2023-04-03T02:49:13;6.53;;;2.40;;
70303;SDS011;57712;48.752;11.348;2023-04-03T02:51:40;6.27;;;1.90;;
70303;SDS011;57712;48.752;11.348;2023-04-03T02:54:07;5.82;;;2.10;;
70303;SDS011;57712;48.752;11.348;2023-04-03T02:56:34;5.20;;;2.20;;
70303;SDS011;57712;48.752;11.348;2023-04-03T02:59:00;5.07;;;2.30;;
70303;SDS011;57712;48.752;11.348;2023-04-03T03:01:27;5.38;;;1.90;;
70303;SDS011;57712;48.752;11.348;2023-04-03T03:03:58;6.60;;;2.20;;
70303;SDS011;57712;48.752;11.348;2023-04-03T03:06:25;4.25;;;1.80;;
70303;SDS011;57712;48.752;11.348;2023-04-03T03:08:52;5.40;;;2.20;;
70303;SDS011;57712;48.752;11.348;2023-04-03T03:11:18;7.32;;;2.10;;
70303;SDS011;57712;48.752;11.348;2023-04-03T03:13:46;4.97;;;2.03;;
70303;SDS011;57712;48.752;11.348;2023-04-03T03:16:12;4.83;;;1.90;;
70303;SDS011;57712;48.752;11.348;2023-04-03T03:18:39;4.97;;;1.83;;
70303;SDS011;57712;48.752;11.348;2023-04-03T03:21:06;5.22;;;2.03;;
70303;SDS011;57712;48.752;11.348;2023-04-03T03:23:32;5.70;;;1.83;;
70303;SDS011;57712;48.752;11.348;2023-04-03T03:26:01;5.90;;;1.75;;
70303;SDS011;57712;48.752;11.348;2023-04-03T03:28:29;7.40;;;2.00;;
70303;SDS011;57712;48.752;11.348;2023-04-03T03:30:57;5.25;;;1.90;;
70303;SDS011;57712;48.752;11.348;2023-04-03T03:33:24;4.72;;;1.58;;
70303;SDS011;57712;48.752;11.348;2023-04-03T03:35:52;5.70;;;1.88;;
70303;SDS011;57712;48.752;11.348;2023-04-03T03:38:19;6.35;;;2.30;;
70303;SDS011;57712;48.752;11.348;2023-04-03T03:40:47;4.97;;;2.03;;
70303;SDS011;57712;48.752;11.348;2023-04-03T03:43:15;5.30;;;2.20;;
70303;SDS011;57712;48.752;11.348;2023-04-03T03:45:42;4.70;;;2.05;;
70303;SDS011;57712;48.752;11.348;2023-04-03T03:48:11;6.13;;;2.20;;
70303;SDS011;57712;48.752;11.348;2023-04-03T03:50:38;5.80;;;2.25;;
70303;SDS011;57712;48.752;11.348;2023-04-03T03:53:04;5.40;;;2.20;;
70303;SDS011;57712;48.752;11.348;2023-04-03T03:55:31;5.88;;;2.55;;
70303;SDS011;57712;48.752;11.348;2023-04-03T03:57:57;6.10;;;2.15;;
70303;SDS011;57712;48.752;11.348;2023-04-03T04:00:24;5.57;;;2.25;;
70303;SDS011;57712;48.752;11.348;2023-04-03T04:02:51;6.13;;;2.40;;
70303;SDS011;57712;48.752;11.348;2023-04-03T04:05:18;7.40;;;2.40;;
70303;SDS011;57712;48.752;11.348;2023-04-03T04:07:44;7.43;;;2.40;;
70303;SDS011;57712;48.752;11.348;2023-04-03T04:10:11;6.90;;;2.83;;
70303;SDS011;57712;48.752;11.348;2023-04-03T04:12:39;4.90;;;1.75;;
70303;SDS011;57712;48.752;11.348;2023-04-03T04:15:06;8.32;;;2.90;;
70303;SDS011;57712;48.752;11.348;2023-04-03T04:17:33;5.10;;;2.20;;
70303;SDS011;57712;48.752;11.348;2023-04-03T04:20:02;5.53;;;2.50;;
70303;SDS011;57712;48.752;11.348;2023-04-03T04:22:31;6.47;;;2.80;;
70303;SDS011;57712;48.752;11.348;2023-04-03T04:24:57;7.82;;;2.20;;
70303;SDS011;57712;48.752;11.348;2023-04-03T04:27:24;6.22;;;2.33;;
70303;SDS011;57712;48.752;11.348;2023-04-03T04:29:50;8.30;;;2.80;;
70303;SDS011;57712;48.752;11.348;2023-04-03T04:32:17;5.30;;;2.03;;
70303;SDS011;57712;48.752;11.348;2023-04-03T04:34:43;7.03;;;2.30;;
70303;SDS011;57712;48.752;11.348;2023-04-03T04:37:10;6.63;;;2.42;;
70303;SDS011;57712;48.752;11.348;2023-04-03T04:39:37;5.72;;;2.10;;
70303;SDS011;57712;48.752;11.348;2023-04-03T04:42:03;5.77;;;2.27;;
70303;SDS011;57712;48.752;11.348;2023-04-03T04:44:30;4.93;;;1.80;;
70303;SDS011;57712;48.752;11.348;2023-04-03T04:46:57;5.95;;;2.22;;
70303;SDS011;57712;48.752;11.348;2023-04-03T04:49:23;5.25;;;2.13;;
70303;SDS011;57712;48.752;11.348;2023-04-03T04:51:50;6.15;;;2.13;;
70303;SDS011;57712;48.752;11.348;2023-04-03T04:54:17;5.43;;;2.00;;
70303;SDS011;57712;48.752;11.348;2023-04-03T04:56:44;6.18;;;1.98;;
70303;SDS011;57712;48.752;11.348;2023-04-03T04:59:11;5.57;;;2.15;;
70303;SDS011;57712;48.752;11.348;2023-04-03T05:01:38;7.00;;;2.08;;
70303;SDS011;57712;48.752;11.348;2023-04-03T05:04:05;5.60;;;1.73;;
70303;SDS011;57712;48.752;11.348;2023-04-03T05:06:32;5.40;;;2.03;;
70303;SDS011;57712;48.752;11.348;2023-04-03T05:09:01;6.32;;;2.03;;
70303;SDS011;57712;48.752;11.348;2023-04-03T05:11:27;5.65;;;1.73;;
70303;SDS011;57712;48.752;11.348;2023-04-03T05:13:54;5.80;;;2.00;;
70303;SDS011;57712;48.752;11.348;2023-04-03T05:16:21;6.55;;;2.13;;
70303;SDS011;57712;48.752;11.348;2023-04-03T05:18:47;6.37;;;1.87;;
70303;SDS011;57712;48.752;11.348;2023-04-03T05:21:14;5.75;;;2.22;;
70303;SDS011;57712;48.752;11.348;2023-04-03T05:23:40;6.18;;;1.70;;
70303;SDS011;57712;48.752;11.348;2023-04-03T05:26:07;5.00;;;2.10;;
70303;SDS011;57712;48.752;11.348;2023-04-03T05:28:34;6.07;;;2.00;;
70303;SDS011;57712;48.752;11.348;2023-04-03T05:31:00;5.60;;;2.57;;
70303;SDS011;57712;48.752;11.348;2023-04-03T05:33:27;7.10;;;2.00;;
70303;SDS011;57712;48.752;11.348;2023-04-03T05:35:54;5.82;;;1.90;;
70303;SDS011;57712;48.752;11.348;2023-04-03T05:38:21;5.30;;;2.20;;
70303;SDS011;57712;48.752;11.348;2023-04-03T05:40:50;5.45;;;2.15;;
70303;SDS011;57712;48.752;11.348;2023-04-03T05:43:21;5.63;;;1.93;;
70303;SDS011;57712;48.752;11.348;2023-04-03T05:45:57;7.25;;;2.58;;
70303;SDS011;57712;48.752;11.348;2023-04-03T05:48:29;5.63;;;2.35;;
70303;SDS011;57712;48.752;11.348;2023-04-03T05:50:56;5.90;;;2.03;;
70303;SDS011;57712;48.752;11.348;2023-04-03T05:53:25;6.50;;;1.83;;
70303;SDS011;57712;48.752;11.348;2023-04-03T05:55:55;8.27;;;2.47;;
70303;SDS011;57712;48.752;11.348;2023-04-03T05:58:22;6.38;;;2.40;;
70303;SDS011;57712;48.752;11.348;2023-04-03T06:00:48;5.35;;;2.08;;
70303;SDS011;57712;48.752;11.348;2023-04-03T06:03:15;6.53;;;2.13;;
70303;SDS011;57712;48.752;11.348;2023-04-03T06:05:43;6.05;;;2.20;;
70303;SDS011;57712;48.752;11.348;2023-04-03T06:08:09;7.83;;;2.20;;
70303;SDS011;57712;48.752;11.348;2023-04-03T06:10:38;6.30;;;2.00;;
70303;SDS011;57712;48.752;11.348;2023-04-03T06:13:05;5.63;;;2.00;;
70303;SDS011;57712;48.752;11.348;2023-04-03T06:15:32;6.00;;;2.13;;
70303;SDS011;57712;48.752;11.348;2023-04-03T06:18:00;5.85;;;2.35;;
70303;SDS011;57712;48.752;11.348;2023-04-03T06:20:27;8.20;;;2.37;;
70303;SDS011;57712;48.752;11.348;2023-04-03T06:22:54;8.40;;;3.22;;
70303;SDS011;57712;48.752;11.348;2023-04-03T06:25:20;7.43;;;2.92;;
70303;SDS011;57712;48.752;11.348;2023-04-03T06:27:47;10.75;;;3.88;;
70303;SDS011;57712;48.752;11.348;2023-04-03T06:30:14;7.32;;;3.05;;
70303;SDS011;57712;48.752;11.348;2023-04-03T06:32:40;7.67;;;2.53;;
70303;SDS011;57712;48.752;11.348;2023-04-03T06:35:08;7.10;;;2.95;;
70303;SDS011;57712;48.752;11.348;2023-04-03T06:37:35;6.60;;;2.42;;
70303;SDS011;57712;48.752;11.348;2023-04-03T06:40:01;8.48;;;2.90;;
70303;SDS011;57712;48.752;11.348;2023-04-03T06:42:29;6.93;;;2.80;;
70303;SDS011;57712;48.752;11.348;2023-04-03T06:44:55;8.57;;;2.43;;
70303;SDS011;57712;48.752;11.348;2023-04-03T06:47:22;5.95;;;2.33;;
70303;SDS011;57712;48.752;11.348;2023-04-03T06:49:49;8.35;;;2.70;;
70303;SDS011;57712;48.752;11.348;2023-04-03T06:52:15;7.70;;;2.65;;
70303;SDS011;57712;48.752;11.348;2023-04-03T06:54:42;11.27;;;4.07;;
70303;SDS011;57712;48.752;11.348;2023-04-03T06:57:09;6.50;;;2.70;;
70303;SDS011;57712;48.752;11.348;2023-04-03T06:59:36;6.00;;;2.45;;
70303;SDS011;57712;48.752;11.348;2023-04-03T07:02:03;7.93;;;2.90;;
70303;SDS011;57712;48.752;11.348;2023-04-03T07:04:31;7.75;;;3.03;;
70303;SDS011;57712;48.752;11.348;2023-04-03T07:06:57;7.18;;;2.95;;
70303;SDS011;57712;48.752;11.348;2023-04-03T07:09:24;8.63;;;3.37;;
70303;SDS011;57712;48.752;11.348;2023-04-03T07:11:51;7.57;;;3.17;;
70303;SDS011;57712;48.752;11.348;2023-04-03T07:14:17;6.95;;;3.00;;
70303;SDS011;57712;48.752;11.348;2023-04-03T07:16:44;8.00;;;2.65;;
70303;SDS011;57712;48.752;11.348;2023-04-03T07:19:11;7.18;;;3.10;;
70303;SDS011;57712;48.752;11.348;2023-04-03T07:21:38;7.97;;;2.83;;
70303;SDS011;57712;48.752;11.348;2023-04-03T07:24:05;9.88;;;2.85;;
70303;SDS011;57712;48.752;11.348;2023-04-03T07:26:34;6.25;;;2.72;;
70303;SDS011;57712;48.752;11.348;2023-04-03T07:29:00;6.82;;;2.50;;
70303;SDS011;57712;48.752;11.348;2023-04-03T07:31:27;7.65;;;3.28;;
70303;SDS011;57712;48.752;11.348;2023-04-03T07:33:54;6.80;;;2.73;;
70303;SDS011;57712;48.752;11.348;2023-04-03T07:36:22;7.32;;;2.42;;
70303;SDS011;57712;48.752;11.348;2023-04-03T07:38:50;8.20;;;2.88;;
70303;SDS011;57712;48.752;11.348;2023-04-03T07:41:17;5.95;;;2.95;;
70303;SDS011;57712;48.752;11.348;2023-04-03T07:43:46;5.70;;;2.85;;
70303;SDS011;57712;48.752;11.348;2023-04-03T07:46:13;7.93;;;3.13;;
70303;SDS011;57712;48.752;11.348;2023-04-03T07:48:40;7.10;;;2.70;;
70303;SDS011;57712;48.752;11.348;2023-04-03T07:51:06;6.00;;;2.75;;
70303;SDS011;57712;48.752;11.348;2023-04-03T07:53:33;8.65;;;2.83;;
70303;SDS011;57712;48.752;11.348;2023-04-03T07:56:00;7.43;;;3.42;;
70303;SDS011;57712;48.752;11.348;2023-04-03T07:58:29;6.53;;;2.50;;
70303;SDS011;57712;48.752;11.348;2023-04-03T08:00:57;5.78;;;2.80;;
70303;SDS011;57712;48.752;11.348;2023-04-03T08:03:24;10.38;;;2.92;;
70303;SDS011;57712;48.752;11.348;2023-04-03T08:05:51;6.93;;;2.67;;
70303;SDS011;57712;48.752;11.348;2023-04-03T08:08:18;6.32;;;2.20;;
70303;SDS011;57712;48.752;11.348;2023-04-03T08:10:51;7.07;;;2.40;;
70303;SDS011;57712;48.752;11.348;2023-04-03T08:13:20;6.60;;;2.05;;
70303;SDS011;57712;48.752;11.348;2023-04-03T08:15:47;5.82;;;2.10;;
70303;SDS011;57712;48.752;11.348;2023-04-03T08:18:16;6.00;;;2.25;;
70303;SDS011;57712;48.752;11.348;2023-04-03T08:20:44;5.72;;;2.15;;
70303;SDS011;57712;48.752;11.348;2023-04-03T08:23:11;5.97;;;2.07;;
70303;SDS011;57712;48.752;11.348;2023-04-03T08:25:38;5.95;;;2.40;;
70303;SDS011;57712;48.752;11.348;2023-04-03T08:28:09;7.28;;;2.38;;
70303;SDS011;57712;48.752;11.348;2023-04-03T08:30:40;7.72;;;2.25;;
70303;SDS011;57712;48.752;11.348;2023-04-03T08:33:09;11.68;;;4.47;;
70303;SDS011;57712;48.752;11.348;2023-04-03T08:35:40;6.50;;;2.33;;
70303;SDS011;57712;48.752;11.348;2023-04-03T08:38:08;5.00;;;1.95;;
70303;SDS011;57712;48.752;11.348;2023-04-03T08:40:35;7.18;;;2.78;;
70303;SDS011;57712;48.752;11.348;2023-04-03T08:48:27;6.00;;;2.67;;
70303;SDS011;57712;48.752;11.348;2023-04-03T08:50:59;5.05;;;1.95;;
70303;SDS011;57712;48.752;11.348;2023-04-03T08:53:38;7.45;;;2.25;;
70303;SDS011;57712;48.752;11.348;2023-04-03T08:56:09;7.88;;;1.90;;
70303;SDS011;57712;48.752;11.348;2023-04-03T08:58:59;6.50;;;2.13;;
70303;SDS011;57712;48.752;11.348;2023-04-03T09:04:02;6.68;;;2.00;;
70303;SDS011;57712;48.752;11.348;2023-04-03T09:06:36;5.10;;;2.25;;
70303;SDS011;57712;48.752;11.348;2023-04-03T09:12:02;5.13;;;2.20;;
70303;SDS011;57712;48.752;11.348;2023-04-03T09:17:17;7.38;;;2.30;;
70303;SDS011;57712;48.752;11.348;2023-04-03T09:20:07;6.60;;;2.25;;
70303;SDS011;57712;48.752;11.348;2023-04-03T09:22:45;5.80;;;1.83;;
70303;SDS011;57712;48.752;11.348;2023-04-03T09:27:48;6.90;;;2.00;;
70303;SDS011;57712;48.752;11.348;2023-04-03T09:30:17;5.28;;;1.92;;
70303;SDS011;57712;48.752;11.348;2023-04-03T09:32:49;6.63;;;2.42;;
70303;SDS011;57712;48.752;11.348;2023-04-03T09:40:41;5.93;;;1.87;;
70303;SDS011;57712;48.752;11.348;2023-04-03T09:45:43;7.18;;;3.35;;
70303;SDS011;57712;48.752;11.348;2023-04-03T09:58:45;5.45;;;2.45;;
70303;SDS011;57712;48.752;11.348;2023-04-03T10:04:04;5.95;;;3.65;;
70303;SDS011;57712;48.752;11.348;2023-04-03T10:06:40;6.87;;;2.10;;
70303;SDS011;57712;48.752;11.348;2023-04-03T10:09:16;5.97;;;2.00;;
70303;SDS011;57712;48.752;11.348;2023-04-03T10:14:28;8.25;;;4.38;;
70303;SDS011;57712;48.752;11.348;2023-04-03T10:16:59;5.88;;;2.00;;
70303;SDS011;57712;48.752;11.348;2023-04-03T10:19:43;12.00;;;5.60;;
70303;SDS011;57712;48.752;11.348;2023-04-03T10:22:21;9.82;;;5.10;;
70303;SDS011;57712;48.752;11.348;2023-04-03T10:27:32;13.52;;;10.23;;
70303;SDS011;57712;48.752;11.348;2023-04-03T10:38:43;7.53;;;5.22;;
70303;SDS011;57712;48.752;11.348;2023-04-03T10:41:54;7.28;;;4.88;;
70303;SDS011;57712;48.752;11.348;2023-04-03T10:47:46;4.50;;;1.30;;
70303;SDS011;57712;48.752;11.348;2023-04-03T10:50:31;5.13;;;1.60;;
70303;SDS011;57712;48.752;11.348;2023-04-03T10:56:24;4.07;;;1.00;;
70303;SDS011;57712;48.752;11.348;2023-04-03T11:02:42;4.93;;;1.10;;
70303;SDS011;57712;48.752;11.348;2023-04-03T11:04:55;3.95;;;1.15;;
70303;SDS011;57712;48.752;11.348;2023-04-03T11:07:32;4.25;;;1.20;;
70303;SDS011;57712;48.752;11.348;2023-04-03T11:10:03;4.60;;;1.30;;
70303;SDS011;57712;48.752;11.348;2023-04-03T11:15:12;4.30;;;1.33;;
70303;SDS011;57712;48.752;11.348;2023-04-03T11:17:44;5.72;;;1.88;;
70303;SDS011;57712;48.752;11.348;2023-04-03T11:20:27;5.38;;;1.88;;
70303;SDS011;57712;48.752;11.348;2023-04-03T11:23:20;5.22;;;1.70;;
70303;SDS011;57712;48.752;11.348;2023-04-03T11:25:57;4.70;;;1.48;;
70303;SDS011;57712;48.752;11.348;2023-04-03T11:28:44;4.83;;;1.20;;
70303;SDS011;57712;48.752;11.348;2023-04-03T11:33:56;4.72;;;1.20;;
70303;SDS011;57712;48.752;11.348;2023-04-03T11:36:33;4.47;;;1.10;;
70303;SDS011;57712;48.752;11.348;2023-04-03T11:39:24;4.43;;;1.00;;
70303;SDS011;57712;48.752;11.348;2023-04-03T11:41:54;4.33;;;0.97;;
70303;SDS011;57712;48.752;11.348;2023-04-03T11:44:38;4.32;;;0.80;;
70303;SDS011;57712;48.752;11.348;2023-04-03T11:47:06;4.90;;;1.13;;
70303;SDS011;57712;48.752;11.348;2023-04-03T11:49:50;4.20;;;1.10;;
70303;SDS011;57712;48.752;11.348;2023-04-03T12:08:27;5.10;;;1.73;;
70303;SDS011;57712;48.752;11.348;2023-04-03T12:19:03;5.95;;;1.42;;
70303;SDS011;57712;48.752;11.348;2023-04-03T12:24:31;5.07;;;0.80;;
70303;SDS011;57712;48.752;11.348;2023-04-03T12:43:35;4.93;;;1.42;;
70303;SDS011;57712;48.752;11.348;2023-04-03T12:48:37;4.53;;;2.17;;
70303;SDS011;57712;48.752;11.348;2023-04-03T12:51:21;5.22;;;1.98;;
70303;SDS011;57712;48.752;11.348;2023-04-03T12:53:57;4.95;;;1.13;;
70303;SDS011;57712;48.752;11.348;2023-04-03T12:56:30;6.80;;;1.60;;
70303;SDS011;57712;48.752;11.348;2023-04-03T13:04:26;4.38;;;1.08;;
70303;SDS011;57712;48.752;11.348;2023-04-03T13:06:53;5.38;;;1.83;;
70303;SDS011;57712;48.752;11.348;2023-04-03T13:11:50;4.57;;;1.63;;
70303;SDS011;57712;48.752;11.348;2023-04-03T13:14:23;4.63;;;1.80;;
70303;SDS011;57712;48.752;11.348;2023-04-03T13:19:37;4.68;;;1.50;;
70303;SDS011;57712;48.752;11.348;2023-04-03T13:22:06;4.28;;;0.98;;
70303;SDS011;57712;48.752;11.348;2023-04-03T13:24:46;3.85;;;0.82;;
70303;SDS011;57712;48.752;11.348;2023-04-03T13:27:14;6.07;;;2.37;;
70303;SDS011;57712;48.752;11.348;2023-04-03T13:29:41;4.03;;;1.10;;
70303;SDS011;57712;48.752;11.348;2023-04-03T13:32:19;4.10;;;0.90;;
70303;SDS011;57712;48.752;11.348;2023-04-03T13:34:49;3.53;;;1.13;;
70303;SDS011;57712;48.752;11.348;2023-04-03T13:37:23;4.90;;;0.98;;
70303;SDS011;57712;48.752;11.348;2023-04-03T13:40:03;4.27;;;1.00;;
70303;SDS011;57712;48.752;11.348;2023-04-03T13:42:32;3.60;;;1.10;;
70303;SDS011;57712;48.752;11.348;2023-04-03T13:47:40;3.65;;;0.77;;
70303;SDS011;57712;48.752;11.348;2023-04-03T13:53:21;5.17;;;3.33;;
70303;SDS011;57712;48.752;11.348;2023-04-03T13:55:59;4.63;;;1.25;;
70303;SDS011;57712;48.752;11.348;2023-04-03T13:58:30;4.30;;;0.70;;
70303;SDS011;57712;48.752;11.348;2023-04-03T14:06:13;3.67;;;0.90;;
70303;SDS011;57712;48.752;11.348;2023-04-03T14:08:42;4.70;;;1.25;;
70303;SDS011;57712;48.752;11.348;2023-04-03T14:11:14;4.10;;;1.30;;
70303;SDS011;57712;48.752;11.348;2023-04-03T14:13:43;4.05;;;1.00;;
70303;SDS011;57712;48.752;11.348;2023-04-03T14:16:12;3.63;;;0.82;;
70303;SDS011;57712;48.752;11.348;2023-04-03T14:18:44;3.90;;;0.60;;
70303;SDS011;57712;48.752;11.348;2023-04-03T14:21:12;3.60;;;0.63;;
70303;SDS011;57712;48.752;11.348;2023-04-03T14:23:41;4.30;;;0.70;;
70303;SDS011;57712;48.752;11.348;2023-04-03T14:26:15;5.20;;;0.90;;
70303;SDS011;57712;48.752;11.348;2023-04-03T14:28:45;6.45;;;0.88;;
70303;SDS011;57712;48.752;11.348;2023-04-03T14:31:13;3.10;;;0.67;;
70303;SDS011;57712;48.752;11.348;2023-04-03T14:33:41;3.83;;;0.70;;
70303;SDS011;57712;48.752;11.348;2023-04-03T14:38:38;6.18;;;0.95;;
70303;SDS011;57712;48.752;11.348;2023-04-03T14:41:05;4.80;;;0.63;;
70303;SDS011;57712;48.752;11.348;2023-04-03T14:43:42;5.93;;;1.30;;
70303;SDS011;57712;48.752;11.348;2023-04-03T14:46:13;5.03;;;1.05;;
70303;SDS011;57712;48.752;11.348;2023-04-03T14:48:40;12.10;;;4.45;;
70303;SDS011;57712;48.752;11.348;2023-04-03T14:51:08;7.13;;;1.17;;
70303;SDS011;57712;48.752;11.348;2023-04-03T14:53:37;4.18;;;1.05;;
70303;SDS011;57712;48.752;11.348;2023-04-03T14:56:09;3.80;;;0.70;;
70303;SDS011;57712;48.752;11.348;2023-04-03T14:58:58;5.38;;;1.88;;
70303;SDS011;57712;48.752;11.348;2023-04-03T15:01:29;4.32;;;0.80;;
70303;SDS011;57712;48.752;11.348;2023-04-03T15:03:56;3.80;;;0.90;;
70303;SDS011;57712;48.752;11.348;2023-04-03T15:06:23;5.63;;;1.70;;
70303;SDS011;57712;48.752;11.348;2023-04-03T15:08:51;6.23;;;1.27;;
70303;SDS011;57712;48.752;11.348;2023-04-03T15:11:18;5.32;;;1.50;;
70303;SDS011;57712;48.752;11.348;2023-04-03T15:13:45;4.63;;;1.38;;
70303;SDS011;57712;48.752;11.348;2023-04-03T15:16:14;4.32;;;1.30;;
70303;SDS011;57712;48.752;11.348;2023-04-03T15:18:46;6.05;;;5.10;;
70303;SDS011;57712;48.752;11.348;2023-04-03T15:21:14;4.80;;;1.30;;
70303;SDS011;57712;48.752;11.348;2023-04-03T15:23:41;4.45;;;1.25;;
70303;SDS011;57712;48.752;11.348;2023-04-03T15:26:09;4.82;;;2.22;;
70303;SDS011;57712;48.752;11.348;2023-04-03T15:28:36;3.95;;;0.80;;
70303;SDS011;57712;48.752;11.348;2023-04-03T15:31:05;4.80;;;1.17;;
70303;SDS011;57712;48.752;11.348;2023-04-03T15:33:34;4.30;;;0.70;;
70303;SDS011;57712;48.752;11.348;2023-04-03T15:36:01;4.32;;;1.20;;
70303;SDS011;57712;48.752;11.348;2023-04-03T15:38:37;3.70;;;0.93;;
70303;SDS011;57712;48.752;11.348;2023-04-03T15:41:04;5.15;;;2.08;;
70303;SDS011;57712;48.752;11.348;2023-04-03T15:43:31;4.78;;;1.10;;
70303;SDS011;57712;48.752;11.348;2023-04-03T15:45:59;5.07;;;1.67;;
70303;SDS011;57712;48.752;11.348;2023-04-03T15:48:27;3.97;;;0.80;;
70303;SDS011;57712;48.752;11.348;2023-04-03T15:50:55;5.35;;;0.88;;
70303;SDS011;57712;48.752;11.348;2023-04-03T15:53:24;4.00;;;1.00;;
70303;SDS011;57712;48.752;11.348;2023-04-03T15:55:50;5.43;;;1.58;;
70303;SDS011;57712;48.752;11.348;2023-04-03T15:58:17;3.83;;;0.60;;
70303;SDS011;57712;48.752;11.348;2023-04-03T16:00:44;3.55;;;0.60;;
70303;SDS011;57712;48.752;11.348;2023-04-03T16:03:12;4.47;;;0.82;;
70303;SDS011;57712;48.752;11.348;2023-04-03T16:05:43;4.78;;;1.80;;
70303;SDS011;57712;48.752;11.348;2023-04-03T16:08:10;4.13;;;1.00;;
70303;SDS011;57712;48.752;11.348;2023-04-03T16:10:37;5.07;;;0.70;;
70303;SDS011;57712;48.752;11.348;2023-04-03T16:13:06;3.47;;;0.70;;
70303;SDS011;57712;48.752;11.348;2023-04-03T16:15:33;3.50;;;0.60;;
70303;SDS011;57712;48.752;11.348;2023-04-03T16:18:01;4.03;;;0.68;;
70303;SDS011;57712;48.752;11.348;2023-04-03T16:20:30;3.90;;;1.00;;
70303;SDS011;57712;48.752;11.348;2023-04-03T16:22:57;4.33;;;0.60;;
70303;SDS011;57712;48.752;11.348;2023-04-03T16:25:26;5.00;;;0.90;;
70303;SDS011;57712;48.752;11.348;2023-04-03T16:27:53;4.15;;;0.88;;
70303;SDS011;57712;48.752;11.348;2023-04-03T16:30:20;3.50;;;0.90;;
70303;SDS011;57712;48.752;11.348;2023-04-03T16:32:47;3.67;;;0.45;;
70303;SDS011;57712;48.752;11.348;2023-04-03T16:35:14;3.70;;;0.83;;
70303;SDS011;57712;48.752;11.348;2023-04-03T16:37:41;3.75;;;0.65;;
70303;SDS011;57712;48.752;11.348;2023-04-03T16:40:10;6.20;;;0.90;;
70303;SDS011;57712;48.752;11.348;2023-04-03T16:42:39;5.38;;;1.08;;
70303;SDS011;57712;48.752;11.348;2023-04-03T16:45:06;5.30;;;1.02;;
70303;SDS011;57712;48.752;11.348;2023-04-03T16:47:33;4.23;;;0.70;;
70303;SDS011;57712;48.752;11.348;2023-04-03T16:50:00;3.65;;;0.80;;
70303;SDS011;57712;48.752;11.348;2023-04-03T16:52:27;4.55;;;0.85;;
70303;SDS011;57712;48.752;11.348;2023-04-03T16:54:54;4.97;;;0.75;;
70303;SDS011;57712;48.752;11.348;2023-04-03T16:57:22;6.22;;;1.98;;
70303;SDS011;57712;48.752;11.348;2023-04-03T16:59:51;4.53;;;1.53;;
70303;SDS011;57712;48.752;11.348;2023-04-03T17:02:19;5.88;;;1.10;;
70303;SDS011;57712;48.752;11.348;2023-04-03T17:04:47;4.72;;;1.20;;
70303;SDS011;57712;48.752;11.348;2023-04-03T17:07:17;4.78;;;0.85;;
70303;SDS011;57712;48.752;11.348;2023-04-03T17:09:49;10.38;;;3.88;;
70303;SDS011;57712;48.752;11.348;2023-04-03T17:12:16;33.33;;;13.40;;